createdAt,value
2023-03-08T00:01:38.162Z,5.25
2023-03-08T00:06:39.919Z,4.85
2023-03-08T00:11:41.718Z,4.75
2023-03-08T00:16:43.465Z,4.13
2023-03-08T00:21:45.287Z,4.75
2023-03-08T00:26:47.047Z,4.72
2023-03-08T00:31:48.872Z,5.57
2023-03-08T00:36:50.688Z,5.15
2023-03-08T00:41:52.813Z,5.15
2023-03-08T00:46:54.620Z,5.78
2023-03-08T00:51:56.539Z,6.35
2023-03-08T00:56:58.339Z,6.38
2023-03-08T01:02:00.917Z,5.55
2023-03-08T01:07:02.750Z,5.53
2023-03-08T01:12:04.986Z,5.20
2023-03-08T01:17:06.824Z,5.18
2023-03-08T01:22:08.575Z,5.75
2023-03-08T01:27:10.365Z,5.10
2023-03-08T01:32:12.451Z,5.72
2023-03-08T01:37:14.256Z,5.70
2023-03-08T01:42:17.183Z,5.93
2023-03-08T01:47:27.659Z,6.18
2023-03-08T01:53:02.090Z,5.82
2023-03-08T01:58:04.236Z,6.10
2023-03-08T02:03:11.526Z,5.28
2023-03-08T02:08:13.747Z,6.35
2023-03-08T02:13:20.025Z,5.93
2023-03-08T02:18:22.362Z,6.40
2023-03-08T02:23:25.748Z,6.43
2023-03-08T02:28:28.664Z,5.47
2023-03-08T02:33:32.283Z,5.90
2023-03-08T02:38:34.629Z,6.03
2023-03-08T02:43:36.389Z,5.50
2023-03-08T02:48:38.307Z,6.10
2023-03-08T02:53:40.269Z,5.63
2023-03-08T02:58:42.126Z,5.75
2023-03-08T03:03:43.954Z,6.18
2023-03-08T03:08:47.229Z,5.82
2023-03-08T03:13:58.781Z,6.30
2023-03-08T03:19:05.413Z,5.45
2023-03-08T03:24:07.864Z,6.43
2023-03-08T03:29:18.165Z,5.75
2023-03-08T03:34:23.320Z,5.93
2023-03-08T03:39:26.191Z,6.10
2023-03-08T03:44:31.891Z,6.30
2023-03-08T03:49:34.153Z,7.40
2023-03-08T03:54:36.242Z,6.03
2023-03-08T03:59:38.163Z,6.40
2023-03-08T04:04:40.270Z,6.60
2023-03-08T04:09:43.477Z,6.10
2023-03-08T04:14:49.395Z,5.72
2023-03-08T04:19:52.646Z,6.53
2023-03-08T04:24:56.179Z,6.43
2023-03-08T04:30:10.404Z,5.68
2023-03-08T04:35:12.361Z,5.65
2023-03-08T04:40:16.535Z,6.78
2023-03-08T04:45:27.999Z,6.18
2023-03-08T04:50:33.200Z,6.32
2023-03-08T04:55:37.207Z,5.80
2023-03-08T05:00:39.849Z,6.43
2023-03-08T05:05:53.997Z,6.80
2023-03-08T05:11:00.517Z,5.93
2023-03-08T05:16:07.941Z,6.68
2023-03-08T05:21:16.261Z,5.57
2023-03-08T05:26:19.745Z,6.30
2023-03-08T05:31:22.974Z,6.40
2023-03-08T05:36:27.647Z,6.82
2023-03-08T05:41:32.207Z,5.93
2023-03-08T05:46:38.087Z,7.20
2023-03-08T05:51:41.359Z,6.57
2023-03-08T05:56:43.212Z,5.75
2023-03-08T06:01:57.824Z,6.45
2023-03-08T06:07:12.983Z,5.63
2023-03-08T06:12:19.712Z,6.10
2023-03-08T06:17:26.329Z,9.73
2023-03-08T06:22:30.436Z,6.15
2023-03-08T06:27:32.367Z,6.50
2023-03-08T06:32:37.654Z,6.80
2023-03-08T06:37:40.907Z,6.00
2023-03-08T06:42:43.287Z,6.65
2023-03-08T06:47:49.570Z,5.53
2023-03-08T06:52:51.627Z,6.20
2023-03-08T06:58:01.749Z,5.78
2023-03-08T07:03:03.663Z,5.90
2023-03-08T07:08:06.301Z,11.05
2023-03-08T07:13:08.030Z,14.68
2023-03-08T07:18:09.838Z,9.45
2023-03-08T07:23:11.636Z,8.98
2023-03-08T07:28:13.472Z,8.93
2023-03-08T07:33:15.631Z,8.73
2023-03-08T07:38:17.806Z,13.95
2023-03-08T07:43:19.554Z,11.77
2023-03-08T07:48:30.286Z,15.60
2023-03-08T07:53:33.113Z,15.52
2023-03-08T07:58:34.904Z,10.10
2023-03-08T08:03:38.280Z,9.60
2023-03-08T08:08:40.701Z,10.05
2023-03-08T08:13:42.892Z,9.20
2023-03-08T08:18:44.762Z,9.77
2023-03-08T08:23:46.919Z,10.82
2023-03-08T08:28:52.184Z,11.35
2023-03-08T08:33:53.957Z,11.52
2023-03-08T08:38:55.802Z,11.95
2023-03-08T08:43:59.032Z,11.32
2023-03-08T08:49:01.674Z,11.55
2023-03-08T08:54:03.928Z,12.90
2023-03-08T08:59:05.932Z,12.57
2023-03-08T09:04:07.743Z,13.02
2023-03-08T09:09:09.640Z,12.45
2023-03-08T09:14:11.487Z,13.07
2023-03-08T09:19:13.257Z,12.57
2023-03-08T09:24:16.859Z,12.57
2023-03-08T09:29:18.705Z,11.77
2023-03-08T09:34:20.645Z,11.18
2023-03-08T09:39:22.495Z,11.93
2023-03-08T09:44:50.342Z,11.25
2023-03-08T09:49:55.791Z,11.55
2023-03-08T09:55:01.698Z,11.88
2023-03-08T10:00:09.384Z,11.40
2023-03-08T10:05:21.948Z,13.40
2023-03-08T10:10:23.987Z,12.77
2023-03-08T10:15:28.147Z,14.98
2023-03-08T10:20:37.380Z,13.27
2023-03-08T10:25:39.683Z,14.85
2023-03-08T10:30:46.737Z,15.80
2023-03-08T10:36:02.345Z,15.02
2023-03-08T10:41:15.089Z,14.95
2023-03-08T10:46:30.202Z,16.00
2023-03-08T10:51:32.129Z,23.15
2023-03-08T10:56:40.910Z,17.25
2023-03-08T11:01:51.522Z,16.98
2023-03-08T11:06:53.296Z,15.98
2023-03-08T11:11:56.947Z,17.02
2023-03-08T11:17:30.708Z,15.95
2023-03-08T11:22:41.311Z,16.65
2023-03-08T11:28:20.652Z,16.15
2023-03-08T11:33:46.069Z,15.88
2023-03-08T11:39:12.483Z,14.43
2023-03-08T11:44:24.311Z,17.02
2023-03-08T11:50:05.791Z,16.17
2023-03-08T11:55:39.351Z,14.27
2023-03-08T12:00:43.547Z,15.73
2023-03-08T12:05:59.699Z,16.52
2023-03-08T12:11:19.275Z,15.38
2023-03-08T12:16:34.054Z,16.13
2023-03-08T12:21:49.060Z,16.58
2023-03-08T12:27:12.465Z,14.38
2023-03-08T12:32:17.135Z,15.88
2023-03-08T12:37:27.864Z,15.43
2023-03-08T12:42:35.997Z,15.57
2023-03-08T12:47:38.378Z,14.85
2023-03-08T12:52:40.355Z,14.18
2023-03-08T12:57:52.321Z,13.75
2023-03-08T13:03:39.052Z,22.58
2023-03-08T13:08:50.995Z,15.15
2023-03-08T13:13:57.282Z,13.82
2023-03-08T13:19:14.721Z,16.92
2023-03-08T13:24:21.176Z,18.23
2023-03-08T13:29:27.677Z,17.30
2023-03-08T13:34:32.928Z,16.23
2023-03-08T13:39:34.666Z,14.40
2023-03-08T13:44:37.096Z,14.68
2023-03-08T13:49:43.640Z,14.60
2023-03-08T13:54:50.495Z,15.88
2023-03-08T13:59:54.892Z,15.60
2023-03-08T14:04:58.228Z,17.98
2023-03-08T14:10:00.160Z,16.77
2023-03-08T14:15:04.981Z,16.05
2023-03-08T14:20:20.709Z,15.90
2023-03-08T14:25:29.790Z,16.88
2023-03-08T14:30:32.331Z,18.00
2023-03-08T14:35:38.446Z,18.40
2023-03-08T14:40:49.546Z,20.27
2023-03-08T14:45:55.683Z,18.48
2023-03-08T14:51:00.104Z,18.38
2023-03-08T14:56:14.113Z,18.42
2023-03-08T15:01:25.119Z,17.90
2023-03-08T15:06:30.389Z,18.05
2023-03-08T15:11:32.388Z,19.40
2023-03-08T15:16:34.597Z,18.60
2023-03-08T15:21:37.873Z,19.38
2023-03-08T15:26:39.592Z,19.45
2023-03-08T15:31:41.352Z,18.38
2023-03-08T15:36:43.110Z,18.45
2023-03-08T15:41:45.168Z,17.65
2023-03-08T15:46:46.995Z,18.88
2023-03-08T15:51:48.805Z,21.05
2023-03-08T15:56:50.655Z,19.17
2023-03-08T16:01:52.403Z,23.85
2023-03-08T16:06:54.326Z,17.27
2023-03-08T16:11:56.125Z,19.02
2023-03-08T16:16:57.958Z,18.75
2023-03-08T16:22:00.128Z,17.52
2023-03-08T16:27:04.446Z,17.30
2023-03-08T16:32:06.630Z,19.48
2023-03-08T16:37:08.444Z,18.45
2023-03-08T16:42:12.956Z,17.60
2023-03-08T16:47:14.936Z,16.58
2023-03-08T16:52:18.093Z,18.10
2023-03-08T16:57:21.610Z,17.25
2023-03-08T17:02:23.401Z,14.77
2023-03-08T17:07:25.143Z,15.45
2023-03-08T17:12:27.207Z,14.93
2023-03-08T17:17:29.016Z,13.70
2023-03-08T17:22:33.638Z,16.90
2023-03-08T17:27:35.452Z,15.50
2023-03-08T17:32:37.263Z,15.27
2023-03-08T17:37:41.591Z,16.77
2023-03-08T17:42:43.430Z,14.23
2023-03-08T17:47:45.913Z,15.63
2023-03-08T17:52:47.662Z,15.15
2023-03-08T17:57:49.651Z,15.98
2023-03-08T18:02:51.378Z,18.02
2023-03-08T18:07:53.169Z,18.15
2023-03-08T18:12:54.957Z,15.85
2023-03-08T18:17:56.696Z,14.10
2023-03-08T18:22:58.496Z,12.20
2023-03-08T18:28:00.402Z,11.43
2023-03-08T18:33:02.242Z,13.52
2023-03-08T18:38:04.056Z,13.20
2023-03-08T18:43:05.843Z,13.93
2023-03-08T18:48:07.616Z,13.60
2023-03-08T18:53:09.335Z,19.05
2023-03-08T18:58:11.156Z,14.00
2023-03-08T19:03:12.930Z,14.93
2023-03-08T19:08:15.278Z,13.40
2023-03-08T19:13:17.602Z,18.92
2023-03-08T19:18:23.533Z,42.47
2023-03-08T19:23:25.494Z,14.80
2023-03-08T19:28:27.425Z,13.23
2023-03-08T19:33:31.412Z,12.02
2023-03-08T19:38:33.717Z,12.43
2023-03-08T19:43:35.454Z,11.35
2023-03-08T19:48:37.277Z,10.88
2023-03-08T19:53:39.304Z,11.88
2023-03-08T19:58:41.144Z,12.57
2023-03-08T20:03:43.109Z,11.50
2023-03-08T20:08:45.091Z,10.77
2023-03-08T20:13:46.936Z,12.52
2023-03-08T20:18:49.535Z,12.32
2023-03-08T20:23:55.250Z,14.05
2023-03-08T20:28:58.066Z,11.55
2023-03-08T20:34:00.819Z,11.32
2023-03-08T20:39:02.980Z,13.68
2023-03-08T20:44:05.060Z,12.77
2023-03-08T20:49:06.838Z,11.98
2023-03-08T20:54:08.785Z,12.75
2023-03-08T20:59:10.950Z,11.75
2023-03-08T21:04:12.779Z,11.55
2023-03-08T21:09:15.283Z,10.75
2023-03-08T21:14:17.093Z,11.50
2023-03-08T21:19:23.960Z,11.88
2023-03-08T21:24:25.807Z,10.70
2023-03-08T21:29:28.951Z,11.57
2023-03-08T21:34:30.891Z,10.77
2023-03-08T21:39:32.849Z,11.95
2023-03-08T21:44:34.611Z,11.77
2023-03-08T21:49:36.513Z,10.45
2023-03-08T21:54:38.381Z,8.63
2023-03-08T21:59:40.213Z,9.10
2023-03-08T22:04:41.976Z,7.72
2023-03-08T22:09:43.697Z,7.90
2023-03-08T22:14:45.618Z,7.75
2023-03-08T22:19:47.438Z,8.75
2023-03-08T22:24:49.283Z,7.72
2023-03-08T22:29:51.571Z,6.20
2023-03-08T22:34:53.683Z,6.25
2023-03-08T22:39:55.915Z,4.75
2023-03-08T22:44:59.718Z,3.35
2023-03-08T22:50:01.558Z,2.28
2023-03-08T22:55:04.086Z,1.83
2023-03-08T23:00:14.181Z,1.63
2023-03-08T23:05:20.399Z,2.05
2023-03-08T23:10:23.273Z,1.60
2023-03-08T23:15:25.048Z,1.65
2023-03-08T23:20:26.913Z,1.70
2023-03-08T23:25:28.668Z,1.70
2023-03-08T23:30:30.427Z,1.50
2023-03-08T23:35:32.231Z,1.73
2023-03-08T23:40:34.008Z,1.98
2023-03-08T23:45:38.154Z,1.65
2023-03-08T23:50:40.366Z,1.83
2023-03-08T23:55:42.194Z,1.90
